sensor_id;sensor_type;location;lat;lon;timestamp;P1;durP1;ratioP1;P2;durP2;ratioP2
5555;SDS011;2801;50.972;7.856;2023-04-08T00:01:14;33.87;;;13.03;;
5555;SDS011;2801;50.972;7.856;2023-04-08T00:03:41;30.80;;;13.27;;
5555;SDS011;2801;50.972;7.856;2023-04-08T00:06:08;35.23;;;13.33;;
5555;SDS011;2801;50.972;7.856;2023-04-08T00:08:35;31.80;;;13.43;;
5555;SDS011;2801;50.972;7.856;2023-04-08T00:11:02;31.57;;;13.37;;
5555;SDS011;2801;50.972;7.856;2023-04-08T00:13:29;33.83;;;13.17;;
5555;SDS011;2801;50.972;7.856;2023-04-08T00:15:56;30.20;;;11.97;;
5555;SDS011;2801;50.972;7.856;2023-04-08T00:18:24;25.77;;;12.17;;
5555;SDS011;2801;50.972;7.856;2023-04-08T00:20:51;31.57;;;12.27;;
5555;SDS011;2801;50.972;7.856;2023-04-08T00:23:18;25.60;;;11.60;;
5555;SDS011;2801;50.972;7.856;2023-04-08T00:25:46;34.47;;;13.80;;
5555;SDS011;2801;50.972;7.856;2023-04-08T00:28:13;28.77;;;11.73;;
5555;SDS011;2801;50.972;7.856;2023-04-08T00:30:41;30.20;;;12.10;;
5555;SDS011;2801;50.972;7.856;2023-04-08T00:33:08;25.40;;;11.27;;
5555;SDS011;2801;50.972;7.856;2023-04-08T00:35:35;28.30;;;13.20;;
5555;SDS011;2801;50.972;7.856;2023-04-08T00:38:02;31.83;;;12.97;;
5555;SDS011;2801;50.972;7.856;2023-04-08T00:40:33;34.80;;;13.77;;
5555;SDS011;2801;50.972;7.856;2023-04-08T00:43:00;34.50;;;13.37;;
5555;SDS011;2801;50.972;7.856;2023-04-08T00:45:27;38.07;;;14.00;;
5555;SDS011;2801;50.972;7.856;2023-04-08T00:47:55;32.10;;;14.07;;
5555;SDS011;2801;50.972;7.856;2023-04-08T00:50:22;39.07;;;14.73;;
5555;SDS011;2801;50.972;7.856;2023-04-08T00:52:49;36.60;;;14.37;;
5555;SDS011;2801;50.972;7.856;2023-04-08T00:55:16;37.30;;;13.97;;
5555;SDS011;2801;50.972;7.856;2023-04-08T00:57:43;35.97;;;13.77;;
5555;SDS011;2801;50.972;7.856;2023-04-08T01:00:11;36.60;;;13.97;;
5555;SDS011;2801;50.972;7.856;2023-04-08T01:08:32;35.60;;;13.93;;
5555;SDS011;2801;50.972;7.856;2023-04-08T01:11:08;42.73;;;15.73;;
5555;SDS011;2801;50.972;7.856;2023-04-08T01:13:39;36.00;;;14.47;;
5555;SDS011;2801;50.972;7.856;2023-04-08T01:16:08;35.50;;;14.57;;
5555;SDS011;2801;50.972;7.856;2023-04-08T01:18:41;37.07;;;14.33;;
5555;SDS011;2801;50.972;7.856;2023-04-08T01:21:11;41.17;;;14.67;;
5555;SDS011;2801;50.972;7.856;2023-04-08T01:23:53;35.50;;;13.80;;
5555;SDS011;2801;50.972;7.856;2023-04-08T01:26:23;36.97;;;15.70;;
5555;SDS011;2801;50.972;7.856;2023-04-08T01:28:55;42.30;;;15.60;;
5555;SDS011;2801;50.972;7.856;2023-04-08T01:31:27;35.10;;;14.53;;
5555;SDS011;2801;50.972;7.856;2023-04-08T01:33:55;39.23;;;15.73;;
5555;SDS011;2801;50.972;7.856;2023-04-08T01:36:26;36.20;;;14.40;;
5555;SDS011;2801;50.972;7.856;2023-04-08T01:38:59;35.47;;;14.20;;
5555;SDS011;2801;50.972;7.856;2023-04-08T01:41:28;36.77;;;15.37;;
5555;SDS011;2801;50.972;7.856;2023-04-08T01:43:56;34.27;;;15.73;;
5555;SDS011;2801;50.972;7.856;2023-04-08T01:46:24;32.67;;;14.77;;
5555;SDS011;2801;50.972;7.856;2023-04-08T01:48:53;30.90;;;14.53;;
5555;SDS011;2801;50.972;7.856;2023-04-08T01:51:22;34.07;;;15.10;;
5555;SDS011;2801;50.972;7.856;2023-04-08T01:53:52;38.63;;;15.43;;
5555;SDS011;2801;50.972;7.856;2023-04-08T01:56:20;36.73;;;14.77;;
5555;SDS011;2801;50.972;7.856;2023-04-08T01:58:50;36.23;;;15.57;;
5555;SDS011;2801;50.972;7.856;2023-04-08T02:01:21;33.27;;;14.37;;
5555;SDS011;2801;50.972;7.856;2023-04-08T02:03:52;38.13;;;15.37;;
5555;SDS011;2801;50.972;7.856;2023-04-08T02:06:24;34.97;;;14.93;;
5555;SDS011;2801;50.972;7.856;2023-04-08T02:08:54;32.47;;;15.07;;
5555;SDS011;2801;50.972;7.856;2023-04-08T02:11:22;32.50;;;14.00;;
5555;SDS011;2801;50.972;7.856;2023-04-08T02:13:50;34.30;;;14.60;;
5555;SDS011;2801;50.972;7.856;2023-04-08T02:16:20;35.67;;;15.20;;
5555;SDS011;2801;50.972;7.856;2023-04-08T02:19:13;36.60;;;14.67;;
5555;SDS011;2801;50.972;7.856;2023-04-08T02:21:57;27.47;;;12.87;;
5555;SDS011;2801;50.972;7.856;2023-04-08T02:24:35;28.90;;;13.37;;
5555;SDS011;2801;50.972;7.856;2023-04-08T02:27:04;29.33;;;13.30;;
5555;SDS011;2801;50.972;7.856;2023-04-08T02:29:34;35.70;;;13.80;;
5555;SDS011;2801;50.972;7.856;2023-04-08T02:32:04;35.30;;;14.07;;
5555;SDS011;2801;50.972;7.856;2023-04-08T02:34:36;36.97;;;14.70;;
5555;SDS011;2801;50.972;7.856;2023-04-08T02:37:07;38.17;;;14.97;;
5555;SDS011;2801;50.972;7.856;2023-04-08T02:39:34;46.03;;;17.10;;
5555;SDS011;2801;50.972;7.856;2023-04-08T02:42:02;46.80;;;17.40;;
5555;SDS011;2801;50.972;7.856;2023-04-08T02:44:30;44.83;;;17.60;;
5555;SDS011;2801;50.972;7.856;2023-04-08T02:46:57;30.37;;;12.60;;
5555;SDS011;2801;50.972;7.856;2023-04-08T02:49:24;32.97;;;13.07;;
5555;SDS011;2801;50.972;7.856;2023-04-08T02:51:51;53.60;;;14.53;;
5555;SDS011;2801;50.972;7.856;2023-04-08T02:54:18;38.47;;;13.93;;
5555;SDS011;2801;50.972;7.856;2023-04-08T02:56:45;30.17;;;13.73;;
5555;SDS011;2801;50.972;7.856;2023-04-08T02:59:12;38.07;;;15.53;;
5555;SDS011;2801;50.972;7.856;2023-04-08T03:01:39;37.87;;;15.07;;
5555;SDS011;2801;50.972;7.856;2023-04-08T03:04:06;36.23;;;15.53;;
5555;SDS011;2801;50.972;7.856;2023-04-08T03:06:33;35.83;;;15.27;;
5555;SDS011;2801;50.972;7.856;2023-04-08T03:09:00;34.70;;;15.63;;
5555;SDS011;2801;50.972;7.856;2023-04-08T03:11:27;34.60;;;16.30;;
5555;SDS011;2801;50.972;7.856;2023-04-08T03:13:54;29.40;;;13.90;;
5555;SDS011;2801;50.972;7.856;2023-04-08T03:16:21;36.83;;;15.40;;
5555;SDS011;2801;50.972;7.856;2023-04-08T03:18:49;36.17;;;15.57;;
5555;SDS011;2801;50.972;7.856;2023-04-08T03:21:19;35.73;;;15.20;;
5555;SDS011;2801;50.972;7.856;2023-04-08T03:23:46;40.83;;;14.53;;
5555;SDS011;2801;50.972;7.856;2023-04-08T03:26:13;36.90;;;15.50;;
5555;SDS011;2801;50.972;7.856;2023-04-08T03:28:41;36.83;;;15.23;;
5555;SDS011;2801;50.972;7.856;2023-04-08T03:31:08;33.00;;;15.00;;
5555;SDS011;2801;50.972;7.856;2023-04-08T03:33:35;34.13;;;14.50;;
5555;SDS011;2801;50.972;7.856;2023-04-08T03:36:02;35.87;;;15.07;;
5555;SDS011;2801;50.972;7.856;2023-04-08T03:38:30;33.83;;;16.37;;
5555;SDS011;2801;50.972;7.856;2023-04-08T03:40:57;31.90;;;15.60;;
5555;SDS011;2801;50.972;7.856;2023-04-08T03:43:24;37.77;;;15.57;;
5555;SDS011;2801;50.972;7.856;2023-04-08T03:45:51;32.47;;;15.27;;
5555;SDS011;2801;50.972;7.856;2023-04-08T03:48:18;36.47;;;15.10;;
5555;SDS011;2801;50.972;7.856;2023-04-08T03:50:45;37.53;;;16.17;;
5555;SDS011;2801;50.972;7.856;2023-04-08T03:53:12;34.90;;;15.50;;
5555;SDS011;2801;50.972;7.856;2023-04-08T03:55:39;36.13;;;15.87;;
5555;SDS011;2801;50.972;7.856;2023-04-08T03:58:06;35.83;;;16.10;;
5555;SDS011;2801;50.972;7.856;2023-04-08T04:00:34;36.73;;;15.13;;
5555;SDS011;2801;50.972;7.856;2023-04-08T04:03:02;36.60;;;15.50;;
5555;SDS011;2801;50.972;7.856;2023-04-08T04:05:29;34.67;;;16.43;;
5555;SDS011;2801;50.972;7.856;2023-04-08T04:07:56;36.37;;;15.97;;
5555;SDS011;2801;50.972;7.856;2023-04-08T04:10:23;37.97;;;16.57;;
5555;SDS011;2801;50.972;7.856;2023-04-08T04:12:50;35.80;;;15.13;;
5555;SDS011;2801;50.972;7.856;2023-04-08T04:15:17;31.30;;;15.53;;
5555;SDS011;2801;50.972;7.856;2023-04-08T04:17:46;39.57;;;16.27;;
5555;SDS011;2801;50.972;7.856;2023-04-08T04:20:16;46.90;;;17.93;;
5555;SDS011;2801;50.972;7.856;2023-04-08T04:22:44;33.73;;;15.00;;
5555;SDS011;2801;50.972;7.856;2023-04-08T04:25:11;32.50;;;14.73;;
5555;SDS011;2801;50.972;7.856;2023-04-08T04:27:38;35.77;;;16.37;;
5555;SDS011;2801;50.972;7.856;2023-04-08T04:30:05;40.97;;;16.50;;
5555;SDS011;2801;50.972;7.856;2023-04-08T04:32:33;41.40;;;17.27;;
5555;SDS011;2801;50.972;7.856;2023-04-08T04:35:00;41.77;;;17.43;;
5555;SDS011;2801;50.972;7.856;2023-04-08T04:37:27;42.27;;;16.90;;
5555;SDS011;2801;50.972;7.856;2023-04-08T04:39:54;42.83;;;17.50;;
5555;SDS011;2801;50.972;7.856;2023-04-08T04:42:21;40.03;;;16.73;;
5555;SDS011;2801;50.972;7.856;2023-04-08T04:44:48;43.00;;;16.77;;
5555;SDS011;2801;50.972;7.856;2023-04-08T04:47:15;45.60;;;17.33;;
5555;SDS011;2801;50.972;7.856;2023-04-08T04:49:42;46.33;;;17.80;;
5555;SDS011;2801;50.972;7.856;2023-04-08T04:52:10;48.23;;;18.20;;
5555;SDS011;2801;50.972;7.856;2023-04-08T04:54:37;44.93;;;17.00;;
5555;SDS011;2801;50.972;7.856;2023-04-08T04:57:04;42.37;;;17.40;;
5555;SDS011;2801;50.972;7.856;2023-04-08T04:59:32;46.37;;;18.33;;
5555;SDS011;2801;50.972;7.856;2023-04-08T05:01:59;45.97;;;19.30;;
5555;SDS011;2801;50.972;7.856;2023-04-08T05:04:26;46.53;;;19.70;;
5555;SDS011;2801;50.972;7.856;2023-04-08T05:06:53;50.00;;;19.20;;
5555;SDS011;2801;50.972;7.856;2023-04-08T05:09:20;52.03;;;19.17;;
5555;SDS011;2801;50.972;7.856;2023-04-08T05:11:47;49.07;;;19.50;;
5555;SDS011;2801;50.972;7.856;2023-04-08T05:14:14;47.90;;;19.73;;
5555;SDS011;2801;50.972;7.856;2023-04-08T05:16:41;44.17;;;18.00;;
5555;SDS011;2801;50.972;7.856;2023-04-08T05:19:08;40.47;;;17.23;;
5555;SDS011;2801;50.972;7.856;2023-04-08T05:21:35;45.40;;;18.00;;
5555;SDS011;2801;50.972;7.856;2023-04-08T05:24:02;45.70;;;18.20;;
5555;SDS011;2801;50.972;7.856;2023-04-08T05:26:29;38.30;;;17.47;;
5555;SDS011;2801;50.972;7.856;2023-04-08T05:28:56;42.60;;;18.10;;
5555;SDS011;2801;50.972;7.856;2023-04-08T05:31:24;41.50;;;17.53;;
5555;SDS011;2801;50.972;7.856;2023-04-08T05:33:51;39.90;;;18.03;;
5555;SDS011;2801;50.972;7.856;2023-04-08T05:36:18;40.17;;;17.97;;
5555;SDS011;2801;50.972;7.856;2023-04-08T05:38:45;38.53;;;17.53;;
5555;SDS011;2801;50.972;7.856;2023-04-08T05:41:12;36.97;;;17.60;;
5555;SDS011;2801;50.972;7.856;2023-04-08T05:43:39;41.83;;;17.97;;
5555;SDS011;2801;50.972;7.856;2023-04-08T05:46:06;41.23;;;18.57;;
5555;SDS011;2801;50.972;7.856;2023-04-08T05:48:35;38.53;;;18.17;;
5555;SDS011;2801;50.972;7.856;2023-04-08T05:51:03;37.93;;;18.07;;
5555;SDS011;2801;50.972;7.856;2023-04-08T05:53:30;37.43;;;17.90;;
5555;SDS011;2801;50.972;7.856;2023-04-08T05:55:57;40.07;;;18.53;;
5555;SDS011;2801;50.972;7.856;2023-04-08T05:58:24;39.13;;;18.37;;
5555;SDS011;2801;50.972;7.856;2023-04-08T06:00:51;37.40;;;18.93;;
5555;SDS011;2801;50.972;7.856;2023-04-08T06:03:20;43.63;;;19.23;;
5555;SDS011;2801;50.972;7.856;2023-04-08T06:05:48;40.93;;;18.87;;
5555;SDS011;2801;50.972;7.856;2023-04-08T06:08:15;38.90;;;19.60;;
5555;SDS011;2801;50.972;7.856;2023-04-08T06:10:48;41.40;;;18.33;;
5555;SDS011;2801;50.972;7.856;2023-04-08T06:13:17;43.10;;;19.63;;
5555;SDS011;2801;50.972;7.856;2023-04-08T06:15:45;40.60;;;18.23;;
5555;SDS011;2801;50.972;7.856;2023-04-08T06:18:15;42.10;;;18.90;;
5555;SDS011;2801;50.972;7.856;2023-04-08T06:20:42;36.30;;;17.50;;
5555;SDS011;2801;50.972;7.856;2023-04-08T06:23:09;35.67;;;17.90;;
5555;SDS011;2801;50.972;7.856;2023-04-08T06:25:36;34.37;;;16.73;;
5555;SDS011;2801;50.972;7.856;2023-04-08T06:28:04;38.47;;;18.33;;
5555;SDS011;2801;50.972;7.856;2023-04-08T06:30:31;40.97;;;18.53;;
5555;SDS011;2801;50.972;7.856;2023-04-08T06:32:58;39.73;;;18.10;;
5555;SDS011;2801;50.972;7.856;2023-04-08T06:35:25;37.60;;;18.20;;
5555;SDS011;2801;50.972;7.856;2023-04-08T06:37:53;40.43;;;19.20;;
5555;SDS011;2801;50.972;7.856;2023-04-08T06:40:20;38.17;;;18.30;;
5555;SDS011;2801;50.972;7.856;2023-04-08T06:42:47;38.97;;;17.93;;
5555;SDS011;2801;50.972;7.856;2023-04-08T06:45:14;37.53;;;18.20;;
5555;SDS011;2801;50.972;7.856;2023-04-08T06:47:41;40.30;;;19.87;;
5555;SDS011;2801;50.972;7.856;2023-04-08T06:50:08;39.23;;;18.67;;
5555;SDS011;2801;50.972;7.856;2023-04-08T06:52:36;39.00;;;18.37;;
5555;SDS011;2801;50.972;7.856;2023-04-08T06:55:03;36.57;;;18.30;;
5555;SDS011;2801;50.972;7.856;2023-04-08T06:57:31;38.27;;;19.23;;
5555;SDS011;2801;50.972;7.856;2023-04-08T06:59:58;37.63;;;19.07;;
5555;SDS011;2801;50.972;7.856;2023-04-08T07:02:25;38.87;;;19.10;;
5555;SDS011;2801;50.972;7.856;2023-04-08T07:04:53;41.93;;;19.03;;
5555;SDS011;2801;50.972;7.856;2023-04-08T07:07:20;39.93;;;18.87;;
5555;SDS011;2801;50.972;7.856;2023-04-08T07:09:49;38.03;;;17.80;;
5555;SDS011;2801;50.972;7.856;2023-04-08T07:12:16;43.10;;;20.33;;
5555;SDS011;2801;50.972;7.856;2023-04-08T07:14:44;43.13;;;19.90;;
5555;SDS011;2801;50.972;7.856;2023-04-08T07:17:11;39.43;;;18.90;;
5555;SDS011;2801;50.972;7.856;2023-04-08T07:19:38;40.20;;;19.47;;
5555;SDS011;2801;50.972;7.856;2023-04-08T07:22:06;37.30;;;18.00;;
5555;SDS011;2801;50.972;7.856;2023-04-08T07:24:33;37.77;;;18.27;;
5555;SDS011;2801;50.972;7.856;2023-04-08T07:27:00;37.30;;;18.67;;
5555;SDS011;2801;50.972;7.856;2023-04-08T07:29:27;37.57;;;19.40;;
5555;SDS011;2801;50.972;7.856;2023-04-08T07:31:54;38.53;;;18.67;;
5555;SDS011;2801;50.972;7.856;2023-04-08T07:34:21;38.90;;;19.30;;
5555;SDS011;2801;50.972;7.856;2023-04-08T07:36:48;38.73;;;19.50;;
5555;SDS011;2801;50.972;7.856;2023-04-08T07:39:15;36.57;;;18.33;;
5555;SDS011;2801;50.972;7.856;2023-04-08T07:41:42;37.77;;;18.43;;
5555;SDS011;2801;50.972;7.856;2023-04-08T07:44:09;37.93;;;18.30;;
5555;SDS011;2801;50.972;7.856;2023-04-08T07:46:36;36.23;;;17.67;;
5555;SDS011;2801;50.972;7.856;2023-04-08T07:49:04;38.47;;;18.33;;
5555;SDS011;2801;50.972;7.856;2023-04-08T07:51:32;40.87;;;20.53;;
5555;SDS011;2801;50.972;7.856;2023-04-08T07:53:59;38.93;;;20.07;;
5555;SDS011;2801;50.972;7.856;2023-04-08T07:56:26;39.63;;;19.03;;
5555;SDS011;2801;50.972;7.856;2023-04-08T07:58:54;39.90;;;19.57;;
5555;SDS011;2801;50.972;7.856;2023-04-08T08:01:22;40.57;;;19.40;;
5555;SDS011;2801;50.972;7.856;2023-04-08T08:03:49;41.80;;;20.83;;
5555;SDS011;2801;50.972;7.856;2023-04-08T08:06:19;34.97;;;18.60;;
5555;SDS011;2801;50.972;7.856;2023-04-08T08:08:46;37.47;;;18.67;;
5555;SDS011;2801;50.972;7.856;2023-04-08T08:11:14;38.93;;;19.83;;
5555;SDS011;2801;50.972;7.856;2023-04-08T08:13:40;34.10;;;18.03;;
5555;SDS011;2801;50.972;7.856;2023-04-08T08:16:08;36.90;;;18.40;;
5555;SDS011;2801;50.972;7.856;2023-04-08T08:18:37;36.63;;;19.43;;
5555;SDS011;2801;50.972;7.856;2023-04-08T08:21:06;33.97;;;17.37;;
5555;SDS011;2801;50.972;7.856;2023-04-08T08:23:33;35.47;;;18.63;;
5555;SDS011;2801;50.972;7.856;2023-04-08T08:26:01;35.77;;;18.37;;
5555;SDS011;2801;50.972;7.856;2023-04-08T08:28:32;32.47;;;17.03;;
5555;SDS011;2801;50.972;7.856;2023-04-08T08:30:59;31.63;;;16.30;;
5555;SDS011;2801;50.972;7.856;2023-04-08T08:33:26;31.40;;;16.47;;
5555;SDS011;2801;50.972;7.856;2023-04-08T08:35:53;31.97;;;16.73;;
5555;SDS011;2801;50.972;7.856;2023-04-08T08:38:21;35.03;;;17.20;;
5555;SDS011;2801;50.972;7.856;2023-04-08T08:40:58;29.40;;;16.13;;
5555;SDS011;2801;50.972;7.856;2023-04-08T08:43:27;32.37;;;17.13;;
5555;SDS011;2801;50.972;7.856;2023-04-08T08:45:54;30.83;;;16.37;;
5555;SDS011;2801;50.972;7.856;2023-04-08T08:48:21;33.10;;;16.23;;
5555;SDS011;2801;50.972;7.856;2023-04-08T08:50:49;30.60;;;16.23;;
5555;SDS011;2801;50.972;7.856;2023-04-08T08:53:17;28.67;;;16.10;;
5555;SDS011;2801;50.972;7.856;2023-04-08T08:55:44;32.27;;;17.00;;
5555;SDS011;2801;50.972;7.856;2023-04-08T08:58:32;31.97;;;16.87;;
5555;SDS011;2801;50.972;7.856;2023-04-08T09:01:00;31.43;;;17.17;;
5555;SDS011;2801;50.972;7.856;2023-04-08T09:03:27;32.50;;;17.00;;
5555;SDS011;2801;50.972;7.856;2023-04-08T09:08:33;35.07;;;17.57;;
5555;SDS011;2801;50.972;7.856;2023-04-08T09:13:59;31.17;;;16.43;;
5555;SDS011;2801;50.972;7.856;2023-04-08T09:16:26;35.83;;;17.50;;
5555;SDS011;2801;50.972;7.856;2023-04-08T09:18:54;36.97;;;17.57;;
5555;SDS011;2801;50.972;7.856;2023-04-08T09:21:35;31.47;;;17.10;;
5555;SDS011;2801;50.972;7.856;2023-04-08T09:24:03;33.37;;;17.03;;
5555;SDS011;2801;50.972;7.856;2023-04-08T09:26:31;34.20;;;17.13;;
5555;SDS011;2801;50.972;7.856;2023-04-08T09:29:00;36.33;;;18.53;;
5555;SDS011;2801;50.972;7.856;2023-04-08T09:31:54;30.90;;;16.50;;
5555;SDS011;2801;50.972;7.856;2023-04-08T09:34:23;36.57;;;18.97;;
5555;SDS011;2801;50.972;7.856;2023-04-08T09:36:53;35.33;;;18.07;;
5555;SDS011;2801;50.972;7.856;2023-04-08T09:39:21;34.97;;;18.27;;
5555;SDS011;2801;50.972;7.856;2023-04-08T09:41:49;30.30;;;16.70;;
5555;SDS011;2801;50.972;7.856;2023-04-08T09:44:19;32.77;;;16.87;;
5555;SDS011;2801;50.972;7.856;2023-04-08T09:49:45;34.67;;;17.40;;
5555;SDS011;2801;50.972;7.856;2023-04-08T09:52:20;30.83;;;16.60;;
5555;SDS011;2801;50.972;7.856;2023-04-08T09:55:17;36.33;;;16.83;;
5555;SDS011;2801;50.972;7.856;2023-04-08T09:57:57;29.40;;;16.97;;
5555;SDS011;2801;50.972;7.856;2023-04-08T10:00:31;30.05;;;16.05;;
5555;SDS011;2801;50.972;7.856;2023-04-08T10:03:25;29.85;;;16.50;;
5555;SDS011;2801;50.972;7.856;2023-04-08T10:05:57;29.48;;;15.75;;
5555;SDS011;2801;50.972;7.856;2023-04-08T10:08:29;28.63;;;15.05;;
5555;SDS011;2801;50.972;7.856;2023-04-08T10:10:58;29.03;;;15.37;;
5555;SDS011;2801;50.972;7.856;2023-04-08T10:13:25;28.60;;;15.23;;
5555;SDS011;2801;50.972;7.856;2023-04-08T10:16:27;28.40;;;15.90;;
5555;SDS011;2801;50.972;7.856;2023-04-08T10:18:53;29.87;;;15.70;;
5555;SDS011;2801;50.972;7.856;2023-04-08T10:21:30;30.17;;;15.77;;
5555;SDS011;2801;50.972;7.856;2023-04-08T10:24:01;27.35;;;13.80;;
5555;SDS011;2801;50.972;7.856;2023-04-08T10:26:33;27.63;;;15.07;;
5555;SDS011;2801;50.972;7.856;2023-04-08T10:29:29;26.43;;;14.77;;
5555;SDS011;2801;50.972;7.856;2023-04-08T10:31:56;27.60;;;14.43;;
5555;SDS011;2801;50.972;7.856;2023-04-08T10:34:24;24.13;;;13.23;;
5555;SDS011;2801;50.972;7.856;2023-04-08T10:36:53;26.50;;;13.77;;
5555;SDS011;2801;50.972;7.856;2023-04-08T10:39:24;28.07;;;14.57;;
5555;SDS011;2801;50.972;7.856;2023-04-08T10:41:52;24.77;;;13.10;;
5555;SDS011;2801;50.972;7.856;2023-04-08T10:44:24;21.57;;;12.00;;
5555;SDS011;2801;50.972;7.856;2023-04-08T10:46:52;21.95;;;12.00;;
5555;SDS011;2801;50.972;7.856;2023-04-08T10:49:20;23.70;;;12.80;;
5555;SDS011;2801;50.972;7.856;2023-04-08T10:51:47;20.40;;;11.10;;
5555;SDS011;2801;50.972;7.856;2023-04-08T10:54:15;18.97;;;9.73;;
5555;SDS011;2801;50.972;7.856;2023-04-08T10:56:47;19.55;;;10.82;;
5555;SDS011;2801;50.972;7.856;2023-04-08T10:59:17;18.88;;;10.88;;
5555;SDS011;2801;50.972;7.856;2023-04-08T11:01:59;18.70;;;10.35;;
5555;SDS011;2801;50.972;7.856;2023-04-08T11:04:28;14.80;;;8.60;;
5555;SDS011;2801;50.972;7.856;2023-04-08T11:06:55;15.53;;;8.00;;
5555;SDS011;2801;50.972;7.856;2023-04-08T11:09:23;13.25;;;8.00;;
5555;SDS011;2801;50.972;7.856;2023-04-08T11:11:51;13.30;;;8.32;;
5555;SDS011;2801;50.972;7.856;2023-04-08T11:14:18;12.13;;;7.60;;
5555;SDS011;2801;50.972;7.856;2023-04-08T11:16:47;11.00;;;6.93;;
5555;SDS011;2801;50.972;7.856;2023-04-08T11:19:14;11.47;;;7.10;;
5555;SDS011;2801;50.972;7.856;2023-04-08T11:21:41;13.45;;;7.43;;
5555;SDS011;2801;50.972;7.856;2023-04-08T11:24:09;12.43;;;7.30;;
5555;SDS011;2801;50.972;7.856;2023-04-08T11:26:37;11.35;;;7.10;;
5555;SDS011;2801;50.972;7.856;2023-04-08T11:29:07;10.80;;;6.87;;
5555;SDS011;2801;50.972;7.856;2023-04-08T11:31:41;10.45;;;6.68;;
5555;SDS011;2801;50.972;7.856;2023-04-08T11:34:09;13.23;;;7.22;;
5555;SDS011;2801;50.972;7.856;2023-04-08T11:36:38;11.48;;;6.78;;
5555;SDS011;2801;50.972;7.856;2023-04-08T11:39:08;12.38;;;7.47;;
5555;SDS011;2801;50.972;7.856;2023-04-08T11:41:38;12.70;;;7.03;;
5555;SDS011;2801;50.972;7.856;2023-04-08T11:44:06;13.55;;;7.28;;
5555;SDS011;2801;50.972;7.856;2023-04-08T11:46:35;11.57;;;7.32;;
5555;SDS011;2801;50.972;7.856;2023-04-08T11:49:04;11.18;;;6.95;;
5555;SDS011;2801;50.972;7.856;2023-04-08T11:51:33;15.48;;;7.78;;
5555;SDS011;2801;50.972;7.856;2023-04-08T11:54:27;9.48;;;6.40;;
5555;SDS011;2801;50.972;7.856;2023-04-08T11:56:57;13.60;;;8.30;;
5555;SDS011;2801;50.972;7.856;2023-04-08T11:59:26;10.32;;;6.78;;
5555;SDS011;2801;50.972;7.856;2023-04-08T12:01:55;11.70;;;6.90;;
5555;SDS011;2801;50.972;7.856;2023-04-08T12:04:22;13.70;;;8.20;;
5555;SDS011;2801;50.972;7.856;2023-04-08T12:06:49;11.40;;;6.85;;
5555;SDS011;2801;50.972;7.856;2023-04-08T12:09:17;15.55;;;8.13;;
5555;SDS011;2801;50.972;7.856;2023-04-08T12:11:44;12.82;;;7.63;;
5555;SDS011;2801;50.972;7.856;2023-04-08T12:14:11;13.50;;;8.10;;
5555;SDS011;2801;50.972;7.856;2023-04-08T12:16:39;12.27;;;7.13;;
5555;SDS011;2801;50.972;7.856;2023-04-08T12:19:06;10.90;;;6.97;;
5555;SDS011;2801;50.972;7.856;2023-04-08T12:21:33;12.27;;;7.53;;
5555;SDS011;2801;50.972;7.856;2023-04-08T12:24:01;13.48;;;7.75;;
5555;SDS011;2801;50.972;7.856;2023-04-08T12:26:28;13.68;;;7.45;;
5555;SDS011;2801;50.972;7.856;2023-04-08T12:28:55;13.38;;;8.48;;
5555;SDS011;2801;50.972;7.856;2023-04-08T12:31:22;11.75;;;7.10;;
5555;SDS011;2801;50.972;7.856;2023-04-08T12:33:49;11.23;;;7.43;;
5555;SDS011;2801;50.972;7.856;2023-04-08T12:36:16;11.65;;;6.70;;
5555;SDS011;2801;50.972;7.856;2023-04-08T12:38:43;11.80;;;7.20;;
5555;SDS011;2801;50.972;7.856;2023-04-08T12:41:11;10.45;;;7.28;;
5555;SDS011;2801;50.972;7.856;2023-04-08T12:43:38;10.70;;;7.40;;
5555;SDS011;2801;50.972;7.856;2023-04-08T12:46:05;10.23;;;6.95;;
5555;SDS011;2801;50.972;7.856;2023-04-08T12:48:32;11.05;;;6.93;;
5555;SDS011;2801;50.972;7.856;2023-04-08T12:50:59;10.20;;;6.03;;
5555;SDS011;2801;50.972;7.856;2023-04-08T12:53:26;10.10;;;6.75;;
5555;SDS011;2801;50.972;7.856;2023-04-08T12:55:53;10.23;;;6.82;;
5555;SDS011;2801;50.972;7.856;2023-04-08T12:58:23;9.05;;;6.22;;
5555;SDS011;2801;50.972;7.856;2023-04-08T13:00:52;9.15;;;6.55;;
5555;SDS011;2801;50.972;7.856;2023-04-08T13:03:20;9.95;;;6.63;;
5555;SDS011;2801;50.972;7.856;2023-04-08T13:05:47;10.45;;;6.32;;
5555;SDS011;2801;50.972;7.856;2023-04-08T13:08:14;9.27;;;6.28;;
5555;SDS011;2801;50.972;7.856;2023-04-08T13:10:42;10.98;;;7.03;;
5555;SDS011;2801;50.972;7.856;2023-04-08T13:13:10;13.80;;;6.60;;
5555;SDS011;2801;50.972;7.856;2023-04-08T13:15:39;8.60;;;6.28;;
5555;SDS011;2801;50.972;7.856;2023-04-08T13:18:06;9.52;;;6.90;;
5555;SDS011;2801;50.972;7.856;2023-04-08T13:20:33;9.90;;;6.18;;
5555;SDS011;2801;50.972;7.856;2023-04-08T13:23:00;9.07;;;6.57;;
5555;SDS011;2801;50.972;7.856;2023-04-08T13:25:27;8.48;;;6.30;;
5555;SDS011;2801;50.972;7.856;2023-04-08T13:27:54;9.82;;;6.43;;
5555;SDS011;2801;50.972;7.856;2023-04-08T13:30:22;8.90;;;6.13;;
5555;SDS011;2801;50.972;7.856;2023-04-08T13:32:49;11.85;;;7.05;;
5555;SDS011;2801;50.972;7.856;2023-04-08T13:35:16;10.57;;;7.05;;
5555;SDS011;2801;50.972;7.856;2023-04-08T13:37:43;11.50;;;7.10;;
5555;SDS011;2801;50.972;7.856;2023-04-08T13:40:10;10.85;;;7.00;;
5555;SDS011;2801;50.972;7.856;2023-04-08T13:42:37;10.35;;;7.18;;
5555;SDS011;2801;50.972;7.856;2023-04-08T13:45:04;10.43;;;6.82;;
5555;SDS011;2801;50.972;7.856;2023-04-08T13:47:32;10.88;;;6.72;;
5555;SDS011;2801;50.972;7.856;2023-04-08T13:50:02;14.18;;;8.07;;
5555;SDS011;2801;50.972;7.856;2023-04-08T13:52:31;10.52;;;6.68;;
5555;SDS011;2801;50.972;7.856;2023-04-08T13:54:58;12.48;;;7.65;;
5555;SDS011;2801;50.972;7.856;2023-04-08T13:57:25;12.93;;;8.05;;
5555;SDS011;2801;50.972;7.856;2023-04-08T13:59:52;13.32;;;7.90;;
5555;SDS011;2801;50.972;7.856;2023-04-08T14:02:19;12.25;;;7.90;;
5555;SDS011;2801;50.972;7.856;2023-04-08T14:04:47;12.18;;;7.53;;
5555;SDS011;2801;50.972;7.856;2023-04-08T14:07:14;11.88;;;7.70;;
5555;SDS011;2801;50.972;7.856;2023-04-08T14:09:42;11.75;;;8.02;;
5555;SDS011;2801;50.972;7.856;2023-04-08T14:12:09;11.10;;;7.13;;
5555;SDS011;2801;50.972;7.856;2023-04-08T14:14:36;10.80;;;7.35;;
5555;SDS011;2801;50.972;7.856;2023-04-08T14:17:03;11.18;;;7.60;;
5555;SDS011;2801;50.972;7.856;2023-04-08T14:19:30;12.13;;;7.45;;
5555;SDS011;2801;50.972;7.856;2023-04-08T14:21:57;12.93;;;8.18;;
5555;SDS011;2801;50.972;7.856;2023-04-08T14:24:24;11.32;;;6.85;;
5555;SDS011;2801;50.972;7.856;2023-04-08T14:26:52;10.50;;;7.00;;
5555;SDS011;2801;50.972;7.856;2023-04-08T14:29:19;10.20;;;7.13;;
5555;SDS011;2801;50.972;7.856;2023-04-08T14:31:46;11.68;;;7.75;;
5555;SDS011;2801;50.972;7.856;2023-04-08T14:34:13;10.00;;;7.13;;
5555;SDS011;2801;50.972;7.856;2023-04-08T14:36:40;12.02;;;7.45;;
5555;SDS011;2801;50.972;7.856;2023-04-08T14:39:07;12.75;;;7.93;;
5555;SDS011;2801;50.972;7.856;2023-04-08T14:41:34;12.75;;;7.85;;
5555;SDS011;2801;50.972;7.856;2023-04-08T14:44:01;12.88;;;8.02;;
5555;SDS011;2801;50.972;7.856;2023-04-08T14:46:29;12.57;;;8.65;;
5555;SDS011;2801;50.972;7.856;2023-04-08T14:48:56;15.68;;;9.55;;
5555;SDS011;2801;50.972;7.856;2023-04-08T14:51:24;11.93;;;7.57;;
5555;SDS011;2801;50.972;7.856;2023-04-08T14:53:51;11.75;;;8.23;;
5555;SDS011;2801;50.972;7.856;2023-04-08T14:56:18;11.48;;;8.48;;
5555;SDS011;2801;50.972;7.856;2023-04-08T14:58:45;12.48;;;8.75;;
5555;SDS011;2801;50.972;7.856;2023-04-08T15:01:12;12.32;;;8.77;;
5555;SDS011;2801;50.972;7.856;2023-04-08T15:03:39;15.32;;;7.93;;
5555;SDS011;2801;50.972;7.856;2023-04-08T15:06:07;12.65;;;8.52;;
5555;SDS011;2801;50.972;7.856;2023-04-08T15:08:34;15.00;;;9.10;;
5555;SDS011;2801;50.972;7.856;2023-04-08T15:11:01;14.35;;;8.68;;
5555;SDS011;2801;50.972;7.856;2023-04-08T15:13:28;13.32;;;9.10;;
5555;SDS011;2801;50.972;7.856;2023-04-08T15:15:55;12.23;;;9.55;;